RJNF(METAR)
08/14 16:00
RJNF 140700Z 01004KT 9999 FEW040 32/25 Q1007 RMK A2974=
戻る
トップページへ戻る
IMOC Co,.Ltd.